ECSPL GCTS-GCXO
Flight info
| Callsign | ECSPL |
|---|---|
| Flight time | 0h 13m |
| Altitude | 5500 |
| Route | VFR |
| Aircraft | C208/L-SDFGR/C |
Departure
| Time | 2026-04-17 21:24 |
|---|---|
| Airport | Tenerife Sur Airport (GCTS) |
Arrival
| Time | 2026-04-17 21:38 |
|---|---|
| Airport | Tenerife Norte-Ciudad de La Laguna Airport (GCXO) |
| Time | Latitude | Longitude | Altitude | Speed | Heading |
|---|---|---|---|---|---|
| 2026-04-17 21:10 | 28.04425 | -16.58434 | 224 ft | 0 kts | 68° |
| 2026-04-17 21:18 | 28.04410 | -16.58403 | 224 ft | 12 kts | 158° |
| 2026-04-17 21:18 | 28.04344 | -16.58485 | 223 ft | 22 kts | 249° |
| 2026-04-17 21:19 | 28.04268 | -16.58568 | 222 ft | 20 kts | 156° |
| 2026-04-17 21:19 | 28.04172 | -16.58592 | 221 ft | 21 kts | 249° |
| 2026-04-17 21:19 | 28.04122 | -16.58735 | 213 ft | 17 kts | 248° |
| 2026-04-17 21:19 | 28.04059 | -16.58799 | 213 ft | 9 kts | 187° |
| 2026-04-17 21:20 | 28.04049 | -16.58790 | 208 ft | 0 kts | 64° |
| 2026-04-17 21:23 | 28.04042 | -16.58781 | 214 ft | 7 kts | 157° |
| 2026-04-17 21:24 | 28.03996 | -16.58656 | 195 ft | 27 kts | 99° |
| 2026-04-17 21:24 | 28.04046 | -16.58400 | 194 ft | 49 kts | 69° |
| 2026-04-17 21:24 | 28.04233 | -16.57854 | 356 ft | 89 kts | 71° |
| 2026-04-17 21:24 | 28.04422 | -16.57246 | 973 ft | 74 kts | 69° |
| 2026-04-17 21:25 | 28.04628 | -16.56620 | 1237 ft | 93 kts | 68° |
| 2026-04-17 21:25 | 28.04955 | -16.55984 | 1619 ft | 96 kts | 49° |
| 2026-04-17 21:25 | 28.05516 | -16.55507 | 1954 ft | 104 kts | 31° |
| 2026-04-17 21:25 | 28.06178 | -16.55151 | 2278 ft | 107 kts | 25° |
| 2026-04-17 21:26 | 28.06871 | -16.54837 | 2661 ft | 108 kts | 26° |
| 2026-04-17 21:26 | 28.07594 | -16.54519 | 3035 ft | 115 kts | 26° |
| 2026-04-17 21:26 | 28.08367 | -16.54207 | 3398 ft | 120 kts | 25° |
| 2026-04-17 21:26 | 28.09125 | -16.53802 | 3747 ft | 120 kts | 48° |
| 2026-04-17 21:27 | 28.09682 | -16.53101 | 4119 ft | 120 kts | 61° |
| 2026-04-17 21:27 | 28.10152 | -16.52307 | 4495 ft | 123 kts | 64° |
| 2026-04-17 21:27 | 28.10632 | -16.51514 | 4918 ft | 118 kts | 65° |
| 2026-04-17 21:27 | 28.11095 | -16.50782 | 5380 ft | 111 kts | 64° |
| 2026-04-17 21:28 | 28.11584 | -16.49983 | 5487 ft | 138 kts | 65° |
| 2026-04-17 21:28 | 28.12149 | -16.48993 | 5499 ft | 159 kts | 65° |
| 2026-04-17 21:28 | 28.12762 | -16.47898 | 5497 ft | 169 kts | 64° |
| 2026-04-17 21:28 | 28.13388 | -16.46771 | 5494 ft | 173 kts | 64° |
| 2026-04-17 21:29 | 28.14029 | -16.45602 | 5492 ft | 176 kts | 64° |
| 2026-04-17 21:29 | 28.14680 | -16.44425 | 5494 ft | 176 kts | 64° |
| 2026-04-17 21:29 | 28.15499 | -16.43371 | 5491 ft | 183 kts | 41° |
| 2026-04-17 21:29 | 28.16624 | -16.42656 | 5495 ft | 187 kts | 32° |
| 2026-04-17 21:30 | 28.17794 | -16.42007 | 5494 ft | 187 kts | 31° |
| 2026-04-17 21:30 | 28.18955 | -16.41357 | 5496 ft | 186 kts | 31° |
| 2026-04-17 21:30 | 28.20114 | -16.40701 | 5493 ft | 186 kts | 31° |
| 2026-04-17 21:30 | 28.21270 | -16.40047 | 5497 ft | 186 kts | 31° |
| 2026-04-17 21:31 | 28.22266 | -16.39483 | 5499 ft | 186 kts | 32° |
| 2026-04-17 21:31 | 28.22642 | -16.39271 | 5500 ft | 186 kts | 32° |
| 2026-04-17 21:31 | 28.23712 | -16.38670 | 5533 ft | 187 kts | 31° |
| 2026-04-17 21:31 | 28.24877 | -16.38011 | 5535 ft | 186 kts | 31° |
| 2026-04-17 21:32 | 28.26033 | -16.37354 | 5541 ft | 186 kts | 31° |
| 2026-04-17 21:32 | 28.27196 | -16.36690 | 5541 ft | 187 kts | 31° |
| 2026-04-17 21:32 | 28.28342 | -16.36034 | 5546 ft | 187 kts | 31° |
| 2026-04-17 21:32 | 28.29511 | -16.35389 | 5550 ft | 188 kts | 26° |
| 2026-04-17 21:33 | 28.30792 | -16.35041 | 5553 ft | 191 kts | 10° |
| 2026-04-17 21:33 | 28.32133 | -16.34866 | 5414 ft | 197 kts | 9° |
| 2026-04-17 21:33 | 28.33510 | -16.34681 | 5232 ft | 202 kts | 9° |
| 2026-04-17 21:33 | 28.34845 | -16.34477 | 5033 ft | 181 kts | 12° |
| 2026-04-17 21:34 | 28.35899 | -16.34297 | 4849 ft | 169 kts | 11° |
| 2026-04-17 21:34 | 28.37034 | -16.34105 | 4642 ft | 162 kts | 12° |
| 2026-04-17 21:34 | 28.39255 | -16.33727 | 4238 ft | 169 kts | 11° |
| 2026-04-17 21:35 | 28.40454 | -16.33501 | 4061 ft | 179 kts | 12° |
| 2026-04-17 21:35 | 28.41690 | -16.33279 | 3966 ft | 179 kts | 11° |
| 2026-04-17 21:35 | 28.42683 | -16.33094 | 3961 ft | 166 kts | 12° |
| 2026-04-17 21:35 | 28.43683 | -16.32909 | 3941 ft | 135 kts | 11° |
| 2026-04-17 21:36 | 28.44573 | -16.32759 | 3816 ft | 126 kts | 11° |
| 2026-04-17 21:36 | 28.45449 | -16.32651 | 3596 ft | 128 kts | 8° |
| 2026-04-17 21:36 | 28.46336 | -16.32538 | 3324 ft | 125 kts | 8° |
| 2026-04-17 21:36 | 28.47098 | -16.32486 | 2975 ft | 101 kts | 358° |
| 2026-04-17 21:37 | 28.47720 | -16.32781 | 2540 ft | 97 kts | 316° |
| 2026-04-17 21:37 | 28.48032 | -16.33448 | 2141 ft | 94 kts | 290° |
| 2026-04-17 21:37 | 28.48239 | -16.34076 | 2052 ft | 72 kts | 291° |
| 2026-04-17 21:37 | 28.48397 | -16.34547 | 2067 ft | 59 kts | 290° |
| 2026-04-17 21:38 | 28.48544 | -16.34991 | 2087 ft | 56 kts | 290° |
| 2026-04-17 21:38 | 28.48657 | -16.35240 | 2082 ft | 17 kts | 305° |
| 2026-04-17 21:38 | 28.48715 | -16.35322 | 2079 ft | 14 kts | 333° |
| 2026-04-17 21:38 | 28.48740 | -16.35235 | 2078 ft | 18 kts | 110° |
| 2026-04-17 21:39 | 28.48689 | -16.35079 | 2081 ft | 17 kts | 111° |
| 2026-04-17 21:39 | 28.48713 | -16.35022 | 2078 ft | 10 kts | 20° |
| 2026-04-17 21:39 | 28.48760 | -16.35001 | 2075 ft | 7 kts | 19° |
| 2026-04-17 21:39 | 28.48781 | -16.34993 | 2075 ft | 0 kts | 21° |